sensor_id;sensor_type;location;lat;lon;timestamp;pressure;altitude;pressure_sealevel;temperature;humidity
18569;BME280;14780;48.316;-1.050;2023-05-07T00:00:43;98903.47;;;23.14;40.49
18569;BME280;14780;48.316;-1.050;2023-05-07T00:03:27;98903.75;;;23.12;40.60
18569;BME280;14780;48.316;-1.050;2023-05-07T00:06:14;98906.47;;;23.12;40.55
18569;BME280;14780;48.316;-1.050;2023-05-07T00:08:59;98899.38;;;23.11;40.56
18569;BME280;14780;48.316;-1.050;2023-05-07T00:11:45;98904.00;;;23.11;40.64
18569;BME280;14780;48.316;-1.050;2023-05-07T00:14:29;98901.28;;;23.11;40.62
18569;BME280;14780;48.316;-1.050;2023-05-07T00:17:14;98900.47;;;23.10;40.60
18569;BME280;14780;48.316;-1.050;2023-05-07T00:19:59;98891.47;;;23.10;40.48
18569;BME280;14780;48.316;-1.050;2023-05-07T00:22:43;98902.38;;;23.10;40.53
18569;BME280;14780;48.316;-1.050;2023-05-07T00:25:28;98898.00;;;23.09;40.64
18569;BME280;14780;48.316;-1.050;2023-05-07T00:28:12;98902.38;;;23.10;40.51
18569;BME280;14780;48.316;-1.050;2023-05-07T00:30:57;98911.13;;;23.07;40.53
18569;BME280;14780;48.316;-1.050;2023-05-07T00:33:42;98910.28;;;23.06;40.60
18569;BME280;14780;48.316;-1.050;2023-05-07T00:36:27;98911.38;;;23.05;40.57
18569;BME280;14780;48.316;-1.050;2023-05-07T00:39:11;98916.84;;;23.05;40.64
18569;BME280;14780;48.316;-1.050;2023-05-07T00:41:56;98916.84;;;23.05;40.61
18569;BME280;14780;48.316;-1.050;2023-05-07T00:44:41;98919.56;;;23.05;40.68
18569;BME280;14780;48.316;-1.050;2023-05-07T00:47:26;98918.19;;;23.03;40.58
18569;BME280;14780;48.316;-1.050;2023-05-07T00:50:11;98923.38;;;23.04;40.70
18569;BME280;14780;48.316;-1.050;2023-05-07T00:52:57;98925.28;;;23.04;40.67
18569;BME280;14780;48.316;-1.050;2023-05-07T00:55:42;98922.56;;;23.04;40.64
18569;BME280;14780;48.316;-1.050;2023-05-07T00:58:27;98931.84;;;23.03;40.70
18569;BME280;14780;48.316;-1.050;2023-05-07T01:01:11;98929.38;;;23.01;40.63
18569;BME280;14780;48.316;-1.050;2023-05-07T01:03:56;98927.47;;;23.02;40.69
18569;BME280;14780;48.316;-1.050;2023-05-07T01:06:42;98925.00;;;23.00;40.59
18569;BME280;14780;48.316;-1.050;2023-05-07T01:09:28;98926.94;;;23.00;40.59
18569;BME280;14780;48.316;-1.050;2023-05-07T01:12:13;98927.72;;;23.00;40.67
18569;BME280;14780;48.316;-1.050;2023-05-07T01:14:59;98925.00;;;23.00;40.62
18569;BME280;14780;48.316;-1.050;2023-05-07T01:17:44;98923.38;;;22.99;40.60
18569;BME280;14780;48.316;-1.050;2023-05-07T01:20:30;98926.34;;;22.98;40.60
18569;BME280;14780;48.316;-1.050;2023-05-07T01:23:15;98933.75;;;22.97;40.74
18569;BME280;14780;48.316;-1.050;2023-05-07T01:26:00;98927.44;;;22.97;40.69
18569;BME280;14780;48.316;-1.050;2023-05-07T01:28:45;98925.56;;;22.97;40.72
18569;BME280;14780;48.316;-1.050;2023-05-07T01:31:30;98917.63;;;22.96;40.78
18569;BME280;14780;48.316;-1.050;2023-05-07T01:34:17;98911.09;;;22.97;40.71
18569;BME280;14780;48.316;-1.050;2023-05-07T01:37:04;98911.38;;;22.95;40.64
18569;BME280;14780;48.316;-1.050;2023-05-07T01:39:49;98911.38;;;22.95;40.79
18569;BME280;14780;48.316;-1.050;2023-05-07T01:42:34;98916.84;;;22.95;40.79
18569;BME280;14780;48.316;-1.050;2023-05-07T01:45:20;98912.72;;;22.93;40.78
18569;BME280;14780;48.316;-1.050;2023-05-07T01:48:07;98917.09;;;22.94;40.74
18569;BME280;14780;48.316;-1.050;2023-05-07T01:50:53;98912.72;;;22.93;40.73
18569;BME280;14780;48.316;-1.050;2023-05-07T01:53:39;98902.63;;;22.93;40.78
18569;BME280;14780;48.316;-1.050;2023-05-07T01:56:25;98907.28;;;22.93;40.72
18569;BME280;14780;48.316;-1.050;2023-05-07T01:59:09;98909.16;;;22.92;40.81
18569;BME280;14780;48.316;-1.050;2023-05-07T02:01:55;98913.81;;;22.92;40.86
18569;BME280;14780;48.316;-1.050;2023-05-07T02:04:39;98914.09;;;22.90;40.78
18569;BME280;14780;48.316;-1.050;2023-05-07T02:07:24;98917.63;;;22.91;40.85
18569;BME280;14780;48.316;-1.050;2023-05-07T02:10:09;98929.63;;;22.90;40.81
18569;BME280;14780;48.316;-1.050;2023-05-07T02:12:54;98917.06;;;22.89;40.83
18569;BME280;14780;48.316;-1.050;2023-05-07T02:15:39;98927.97;;;22.89;40.83
18569;BME280;14780;48.316;-1.050;2023-05-07T02:18:24;98926.34;;;22.88;40.85
18569;BME280;14780;48.316;-1.050;2023-05-07T02:21:08;98922.53;;;22.89;40.85
18569;BME280;14780;48.316;-1.050;2023-05-07T02:23:53;98921.72;;;22.88;40.83
18569;BME280;14780;48.316;-1.050;2023-05-07T02:26:39;98928.25;;;22.87;40.93
18569;BME280;14780;48.316;-1.050;2023-05-07T02:29:24;98924.72;;;22.87;40.85
18569;BME280;14780;48.316;-1.050;2023-05-07T02:32:09;98919.25;;;22.87;40.89
18569;BME280;14780;48.316;-1.050;2023-05-07T02:34:54;98924.97;;;22.85;40.88
18569;BME280;14780;48.316;-1.050;2023-05-07T02:37:38;98924.97;;;22.85;40.97
18569;BME280;14780;48.316;-1.050;2023-05-07T02:40:23;98934.00;;;22.86;40.89
18569;BME280;14780;48.316;-1.050;2023-05-07T02:43:08;98936.19;;;22.84;40.92
18569;BME280;14780;48.316;-1.050;2023-05-07T02:46:03;98939.44;;;22.86;40.98
18569;BME280;14780;48.316;-1.050;2023-05-07T02:48:48;98947.09;;;22.84;40.97
18569;BME280;14780;48.316;-1.050;2023-05-07T02:51:33;98947.88;;;22.84;40.81
18569;BME280;14780;48.316;-1.050;2023-05-07T02:54:17;98940.81;;;22.83;40.93
18569;BME280;14780;48.316;-1.050;2023-05-07T02:57:02;98946.25;;;22.83;40.98
18569;BME280;14780;48.316;-1.050;2023-05-07T02:59:47;98947.34;;;22.82;40.99
18569;BME280;14780;48.316;-1.050;2023-05-07T03:02:31;98940.53;;;22.80;40.93
18569;BME280;14780;48.316;-1.050;2023-05-07T03:05:16;98942.97;;;22.81;40.95
18569;BME280;14780;48.316;-1.050;2023-05-07T03:08:01;98945.97;;;22.80;40.92
18569;BME280;14780;48.316;-1.050;2023-05-07T03:10:46;98951.97;;;22.82;40.93
18569;BME280;14780;48.316;-1.050;2023-05-07T03:13:30;98956.06;;;22.79;40.96
18569;BME280;14780;48.316;-1.050;2023-05-07T03:16:16;98956.06;;;22.79;40.99
18569;BME280;14780;48.316;-1.050;2023-05-07T03:19:00;98959.88;;;22.78;40.98
18569;BME280;14780;48.316;-1.050;2023-05-07T03:21:45;98960.69;;;22.79;40.96
18569;BME280;14780;48.316;-1.050;2023-05-07T03:24:30;98963.97;;;22.81;40.95
18569;BME280;14780;48.316;-1.050;2023-05-07T03:27:15;98964.53;;;22.78;41.01
18569;BME280;14780;48.316;-1.050;2023-05-07T03:30:00;98952.78;;;22.77;40.94
18569;BME280;14780;48.316;-1.050;2023-05-07T03:32:45;98962.88;;;22.77;40.94
18569;BME280;14780;48.316;-1.050;2023-05-07T03:35:30;98957.44;;;22.77;40.92
18569;BME280;14780;48.316;-1.050;2023-05-07T03:38:14;98966.69;;;22.76;41.04
18569;BME280;14780;48.316;-1.050;2023-05-07T03:40:59;98965.03;;;22.75;41.02
18569;BME280;14780;48.316;-1.050;2023-05-07T03:43:44;98969.41;;;22.76;40.99
18569;BME280;14780;48.316;-1.050;2023-05-07T03:46:29;98974.31;;;22.74;41.02
18569;BME280;14780;48.316;-1.050;2023-05-07T03:49:14;98970.50;;;22.75;41.08
18569;BME280;14780;48.316;-1.050;2023-05-07T03:51:58;98977.03;;;22.74;41.05
18569;BME280;14780;48.316;-1.050;2023-05-07T03:54:43;98974.31;;;22.74;41.08
18569;BME280;14780;48.316;-1.050;2023-05-07T03:57:28;98975.41;;;22.73;41.07
18569;BME280;14780;48.316;-1.050;2023-05-07T04:00:13;98977.31;;;22.72;41.03
18569;BME280;14780;48.316;-1.050;2023-05-07T04:02:58;98980.31;;;22.71;41.04
18569;BME280;14780;48.316;-1.050;2023-05-07T04:05:42;98971.03;;;22.72;41.10
18569;BME280;14780;48.316;-1.050;2023-05-07T04:08:27;98970.22;;;22.71;41.10
18569;BME280;14780;48.316;-1.050;2023-05-07T04:11:11;98967.78;;;22.70;41.08
18569;BME280;14780;48.316;-1.050;2023-05-07T04:13:56;98977.59;;;22.71;41.03
18569;BME280;14780;48.316;-1.050;2023-05-07T04:16:40;98977.84;;;22.69;41.00
18569;BME280;14780;48.316;-1.050;2023-05-07T04:19:25;98981.41;;;22.70;41.11
18569;BME280;14780;48.316;-1.050;2023-05-07T04:22:10;98985.19;;;22.69;41.12
18569;BME280;14780;48.316;-1.050;2023-05-07T04:24:56;98987.94;;;22.69;41.09
18569;BME280;14780;48.316;-1.050;2023-05-07T04:27:40;98989.84;;;22.68;41.13
18569;BME280;14780;48.316;-1.050;2023-05-07T04:30:26;99004.28;;;22.69;40.92
18569;BME280;14780;48.316;-1.050;2023-05-07T04:33:10;99005.38;;;22.68;41.06
18569;BME280;14780;48.316;-1.050;2023-05-07T04:35:56;99006.47;;;22.67;41.10
18569;BME280;14780;48.316;-1.050;2023-05-07T04:38:40;99006.47;;;22.67;41.05
18569;BME280;14780;48.316;-1.050;2023-05-07T04:41:25;99011.13;;;22.66;41.03
18569;BME280;14780;48.316;-1.050;2023-05-07T04:44:10;99013.00;;;22.66;41.03
18569;BME280;14780;48.316;-1.050;2023-05-07T04:46:55;99010.28;;;22.66;41.05
18569;BME280;14780;48.316;-1.050;2023-05-07T04:49:40;99014.09;;;22.65;41.14
18569;BME280;14780;48.316;-1.050;2023-05-07T04:52:24;99019.56;;;22.65;41.08
18569;BME280;14780;48.316;-1.050;2023-05-07T04:55:09;99017.09;;;22.63;41.04
18569;BME280;14780;48.316;-1.050;2023-05-07T04:57:54;99010.53;;;22.64;41.14
18569;BME280;14780;48.316;-1.050;2023-05-07T05:00:39;99015.19;;;22.64;41.17
18569;BME280;14780;48.316;-1.050;2023-05-07T05:03:24;99017.91;;;22.64;41.08
18569;BME280;14780;48.316;-1.050;2023-05-07T05:06:09;99021.75;;;22.63;41.15
18569;BME280;14780;48.316;-1.050;2023-05-07T05:08:53;99022.81;;;22.62;41.10
18569;BME280;14780;48.316;-1.050;2023-05-07T05:11:39;99023.88;;;22.61;41.14
18569;BME280;14780;48.316;-1.050;2023-05-07T05:14:24;99025.53;;;22.62;41.09
18569;BME280;14780;48.316;-1.050;2023-05-07T05:17:09;99023.88;;;22.61;41.14
18569;BME280;14780;48.316;-1.050;2023-05-07T05:19:54;99034.00;;;22.60;41.07
18569;BME280;14780;48.316;-1.050;2023-05-07T05:22:40;99034.00;;;22.60;41.27
18569;BME280;14780;48.316;-1.050;2023-05-07T05:25:25;99031.53;;;22.59;41.07
18569;BME280;14780;48.316;-1.050;2023-05-07T05:28:09;99042.44;;;22.59;41.04
18569;BME280;14780;48.316;-1.050;2023-05-07T05:30:54;99043.25;;;22.59;41.10
18569;BME280;14780;48.316;-1.050;2023-05-07T05:33:38;99045.16;;;22.59;41.16
18569;BME280;14780;48.316;-1.050;2023-05-07T05:36:23;99047.06;;;22.58;41.13
18569;BME280;14780;48.316;-1.050;2023-05-07T05:39:07;99052.50;;;22.58;41.08
18569;BME280;14780;48.316;-1.050;2023-05-07T05:41:53;99059.03;;;22.57;41.05
18569;BME280;14780;48.316;-1.050;2023-05-07T05:44:37;99066.44;;;22.57;41.10
18569;BME280;14780;48.316;-1.050;2023-05-07T05:47:23;99062.59;;;22.58;41.09
18569;BME280;14780;48.316;-1.050;2023-05-07T05:50:08;99071.03;;;22.56;41.05
18569;BME280;14780;48.316;-1.050;2023-05-07T05:52:53;99070.25;;;22.56;41.12
18569;BME280;14780;48.316;-1.050;2023-05-07T05:55:38;99067.50;;;22.56;41.11
18569;BME280;14780;48.316;-1.050;2023-05-07T05:58:23;99075.69;;;22.56;41.06
18569;BME280;14780;48.316;-1.050;2023-05-07T06:01:08;99083.88;;;22.56;41.04
18569;BME280;14780;48.316;-1.050;2023-05-07T06:03:53;99086.59;;;22.56;41.11
18569;BME280;14780;48.316;-1.050;2023-05-07T06:06:38;99087.66;;;22.55;41.05
18569;BME280;14780;48.316;-1.050;2023-05-07T06:09:22;99089.59;;;22.54;41.12
18569;BME280;14780;48.316;-1.050;2023-05-07T06:12:07;99101.28;;;22.55;41.11
18569;BME280;14780;48.316;-1.050;2023-05-07T06:14:52;99106.75;;;22.55;41.15
18569;BME280;14780;48.316;-1.050;2023-05-07T06:17:36;99099.66;;;22.54;41.03
18569;BME280;14780;48.316;-1.050;2023-05-07T06:20:21;99096.13;;;22.53;41.12
18569;BME280;14780;48.316;-1.050;2023-05-07T06:23:05;99103.47;;;22.53;41.08
18569;BME280;14780;48.316;-1.050;2023-05-07T06:25:51;99110.84;;;22.52;41.15
18569;BME280;14780;48.316;-1.050;2023-05-07T06:28:36;99114.38;;;22.53;41.13
18569;BME280;14780;48.316;-1.050;2023-05-07T06:31:20;99108.13;;;22.52;41.12
18569;BME280;14780;48.316;-1.050;2023-05-07T06:34:05;99099.94;;;22.52;41.06
18569;BME280;14780;48.316;-1.050;2023-05-07T06:36:49;99102.66;;;22.52;41.13
18569;BME280;14780;48.316;-1.050;2023-05-07T06:39:34;99110.00;;;22.52;41.04
18569;BME280;14780;48.316;-1.050;2023-05-07T06:42:20;99119.03;;;22.52;41.07
18569;BME280;14780;48.316;-1.050;2023-05-07T06:45:05;99123.91;;;22.50;41.08
18569;BME280;14780;48.316;-1.050;2023-05-07T06:47:50;99128.25;;;22.51;41.14
18569;BME280;14780;48.316;-1.050;2023-05-07T06:50:35;99129.09;;;22.52;41.11
18569;BME280;14780;48.316;-1.050;2023-05-07T06:53:19;99128.25;;;22.51;41.12
18569;BME280;14780;48.316;-1.050;2023-05-07T06:56:04;99136.72;;;22.50;40.97
18569;BME280;14780;48.316;-1.050;2023-05-07T06:58:49;99128.53;;;22.50;41.14
18569;BME280;14780;48.316;-1.050;2023-05-07T07:01:34;99131.00;;;22.51;41.05
18569;BME280;14780;48.316;-1.050;2023-05-07T07:04:19;99136.72;;;22.50;41.11
18569;BME280;14780;48.316;-1.050;2023-05-07T07:07:04;99142.97;;;22.50;41.17
18569;BME280;14780;48.316;-1.050;2023-05-07T07:09:50;99139.47;;;22.50;41.05
18569;BME280;14780;48.316;-1.050;2023-05-07T07:12:35;99140.25;;;22.50;41.07
18569;BME280;14780;48.316;-1.050;2023-05-07T07:15:20;99147.63;;;22.50;41.04
18569;BME280;14780;48.316;-1.050;2023-05-07T07:18:05;99150.38;;;22.50;41.10
18569;BME280;14780;48.316;-1.050;2023-05-07T07:20:50;99162.06;;;22.50;41.13
18569;BME280;14780;48.316;-1.050;2023-05-07T07:23:34;99158.53;;;22.50;41.20
18569;BME280;14780;48.316;-1.050;2023-05-07T07:26:19;99158.53;;;22.50;41.13
18569;BME280;14780;48.316;-1.050;2023-05-07T07:29:03;99159.34;;;22.50;41.24
18569;BME280;14780;48.316;-1.050;2023-05-07T07:31:49;99164.78;;;22.50;41.10
18569;BME280;14780;48.316;-1.050;2023-05-07T07:34:34;99163.16;;;22.49;41.21
18569;BME280;14780;48.316;-1.050;2023-05-07T07:37:19;99164.53;;;22.52;41.10
18569;BME280;14780;48.316;-1.050;2023-05-07T07:40:05;99160.19;;;22.51;41.06
18569;BME280;14780;48.316;-1.050;2023-05-07T07:42:50;99166.44;;;22.51;41.14
18569;BME280;14780;48.316;-1.050;2023-05-07T07:45:35;99163.47;;;22.53;41.12
18569;BME280;14780;48.316;-1.050;2023-05-07T07:48:20;99167.03;;;22.53;41.13
18569;BME280;14780;48.316;-1.050;2023-05-07T07:51:05;99170.56;;;22.54;41.20
18569;BME280;14780;48.316;-1.050;2023-05-07T07:53:49;99180.66;;;22.53;41.12
18569;BME280;14780;48.316;-1.050;2023-05-07T07:56:34;99187.75;;;22.54;41.17
18569;BME280;14780;48.316;-1.050;2023-05-07T07:59:19;99190.22;;;22.56;41.17
18569;BME280;14780;48.316;-1.050;2023-05-07T08:02:04;99185.56;;;22.56;41.10
18569;BME280;14780;48.316;-1.050;2023-05-07T08:04:49;99190.22;;;22.56;41.21
18569;BME280;14780;48.316;-1.050;2023-05-07T08:07:34;99194.00;;;22.55;41.19
18569;BME280;14780;48.316;-1.050;2023-05-07T08:10:19;99192.94;;;22.56;41.17
18569;BME280;14780;48.316;-1.050;2023-05-07T08:13:07;99198.41;;;22.56;41.13
18569;BME280;14780;48.316;-1.050;2023-05-07T08:15:52;99207.38;;;22.56;41.24
18569;BME280;14780;48.316;-1.050;2023-05-07T08:18:37;99201.13;;;22.56;41.12
18569;BME280;14780;48.316;-1.050;2023-05-07T08:21:22;99210.38;;;22.55;41.21
18569;BME280;14780;48.316;-1.050;2023-05-07T08:24:07;99212.03;;;22.56;41.19
18569;BME280;14780;48.316;-1.050;2023-05-07T08:26:52;99209.31;;;22.56;41.22
18569;BME280;14780;48.316;-1.050;2023-05-07T08:29:36;99216.66;;;22.55;41.24
18569;BME280;14780;48.316;-1.050;2023-05-07T08:32:21;99212.03;;;22.56;41.21
18569;BME280;14780;48.316;-1.050;2023-05-07T08:35:06;99213.69;;;22.57;41.22
18569;BME280;14780;48.316;-1.050;2023-05-07T08:37:51;99219.13;;;22.57;41.15
18569;BME280;14780;48.316;-1.050;2023-05-07T08:40:38;99218.28;;;22.56;41.22
18569;BME280;14780;48.316;-1.050;2023-05-07T08:43:27;99212.59;;;22.58;41.28
18569;BME280;14780;48.316;-1.050;2023-05-07T08:46:16;99214.47;;;22.57;41.17
18569;BME280;14780;48.316;-1.050;2023-05-07T08:49:01;99215.31;;;22.58;41.25
18569;BME280;14780;48.316;-1.050;2023-05-07T08:51:46;99215.31;;;22.58;41.23
18569;BME280;14780;48.316;-1.050;2023-05-07T08:54:31;99216.97;;;22.59;41.22
18569;BME280;14780;48.316;-1.050;2023-05-07T08:57:16;99216.97;;;22.59;41.29
18569;BME280;14780;48.316;-1.050;2023-05-07T09:00:02;99217.78;;;22.59;41.27
18569;BME280;14780;48.316;-1.050;2023-05-07T09:02:47;99225.69;;;22.61;41.25
18569;BME280;14780;48.316;-1.050;2023-05-07T09:05:32;99217.50;;;22.61;41.32
18569;BME280;14780;48.316;-1.050;2023-05-07T09:08:17;99221.06;;;22.61;41.25
18569;BME280;14780;48.316;-1.050;2023-05-07T09:11:02;99224.59;;;22.62;41.29
18569;BME280;14780;48.316;-1.050;2023-05-07T09:13:47;99222.72;;;22.62;41.28
18569;BME280;14780;48.316;-1.050;2023-05-07T09:16:31;99230.66;;;22.64;41.33
18569;BME280;14780;48.316;-1.050;2023-05-07T09:19:16;99232.28;;;22.65;41.30
18569;BME280;14780;48.316;-1.050;2023-05-07T09:22:06;99228.47;;;22.66;41.29
18569;BME280;14780;48.316;-1.050;2023-05-07T09:24:52;99235.56;;;22.67;41.34
18569;BME280;14780;48.316;-1.050;2023-05-07T09:27:36;99234.47;;;22.68;41.27
18569;BME280;14780;48.316;-1.050;2023-05-07T09:30:22;99236.41;;;22.67;41.35
18569;BME280;14780;48.316;-1.050;2023-05-07T09:33:06;99250.59;;;22.69;41.33
18569;BME280;14780;48.316;-1.050;2023-05-07T09:35:54;99239.69;;;22.69;41.26
18569;BME280;14780;48.316;-1.050;2023-05-07T09:38:39;99235.88;;;22.70;41.33
18569;BME280;14780;48.316;-1.050;2023-05-07T09:41:24;99239.44;;;22.71;41.28
18569;BME280;14780;48.316;-1.050;2023-05-07T09:44:09;99243.78;;;22.72;41.40
18569;BME280;14780;48.316;-1.050;2023-05-07T09:46:55;99239.97;;;22.73;41.25
18569;BME280;14780;48.316;-1.050;2023-05-07T09:49:43;99257.97;;;22.74;41.38
18569;BME280;14780;48.316;-1.050;2023-05-07T09:52:32;99259.63;;;22.75;41.32
18569;BME280;14780;48.316;-1.050;2023-05-07T09:55:20;99252.03;;;22.77;41.40
18569;BME280;14780;48.316;-1.050;2023-05-07T09:58:06;99266.22;;;22.79;41.41
18569;BME280;14780;48.316;-1.050;2023-05-07T10:00:53;99267.84;;;22.80;41.30
18569;BME280;14780;48.316;-1.050;2023-05-07T10:03:40;99278.53;;;22.81;41.28
18569;BME280;14780;48.316;-1.050;2023-05-07T10:06:25;99271.13;;;22.82;41.34
18569;BME280;14780;48.316;-1.050;2023-05-07T10:09:10;99279.06;;;22.83;41.43
18569;BME280;14780;48.316;-1.050;2023-05-07T10:11:56;99266.81;;;22.86;41.34
18569;BME280;14780;48.316;-1.050;2023-05-07T10:14:42;99268.47;;;22.87;41.32
18569;BME280;14780;48.316;-1.050;2023-05-07T10:17:27;99270.09;;;22.88;41.36
18569;BME280;14780;48.316;-1.050;2023-05-07T10:20:12;99273.38;;;22.90;41.31
18569;BME280;14780;48.316;-1.050;2023-05-07T10:22:57;99284.88;;;22.92;41.31
18569;BME280;14780;48.316;-1.050;2023-05-07T10:25:43;99290.06;;;22.93;41.34
18569;BME280;14780;48.316;-1.050;2023-05-07T10:28:30;99280.78;;;22.94;41.36
18569;BME280;14780;48.316;-1.050;2023-05-07T10:31:29;99291.44;;;22.96;41.25
18569;BME280;14780;48.316;-1.050;2023-05-07T10:34:44;99295.00;;;22.96;41.26
18569;BME280;14780;48.316;-1.050;2023-05-07T10:37:27;99297.44;;;22.98;41.26
18569;BME280;14780;48.316;-1.050;2023-05-07T10:40:13;99293.91;;;22.97;41.32
18569;BME280;14780;48.316;-1.050;2023-05-07T10:42:59;99299.94;;;22.99;41.35
18569;BME280;14780;48.316;-1.050;2023-05-07T10:46:08;99304.59;;;22.99;41.37
18569;BME280;14780;48.316;-1.050;2023-05-07T10:52:11;99314.72;;;23.03;41.22
18569;BME280;14780;48.316;-1.050;2023-05-07T10:58:29;99317.44;;;23.03;41.24
18569;BME280;14780;48.316;-1.050;2023-05-07T11:01:13;99321.25;;;23.02;41.33
18569;BME280;14780;48.316;-1.050;2023-05-07T11:04:15;99327.53;;;23.03;41.27
18569;BME280;14780;48.316;-1.050;2023-05-07T11:15:46;99339.00;;;23.05;41.26
18569;BME280;14780;48.316;-1.050;2023-05-07T11:18:48;99335.22;;;23.06;41.25
18569;BME280;14780;48.316;-1.050;2023-05-07T11:21:41;99335.47;;;23.04;41.18
18569;BME280;14780;48.316;-1.050;2023-05-07T11:24:26;99349.34;;;23.03;41.28
18569;BME280;14780;48.316;-1.050;2023-05-07T11:27:11;99345.81;;;23.02;41.28
18569;BME280;14780;48.316;-1.050;2023-05-07T11:29:57;99348.25;;;23.04;41.24
18569;BME280;14780;48.316;-1.050;2023-05-07T11:32:41;99354.31;;;23.06;41.34
18569;BME280;14780;48.316;-1.050;2023-05-07T11:35:27;99358.09;;;23.05;41.40
18569;BME280;14780;48.316;-1.050;2023-05-07T11:38:13;99358.69;;;23.07;41.28
18569;BME280;14780;48.316;-1.050;2023-05-07T11:40:59;99353.78;;;23.09;41.30
18569;BME280;14780;48.316;-1.050;2023-05-07T11:43:59;99359.53;;;23.12;41.28
18569;BME280;14780;48.316;-1.050;2023-05-07T11:46:44;99359.78;;;23.11;41.19
18569;BME280;14780;48.316;-1.050;2023-05-07T11:49:30;99340.69;;;23.11;41.26
18569;BME280;14780;48.316;-1.050;2023-05-07T11:52:16;99352.19;;;23.13;41.28
18569;BME280;14780;48.316;-1.050;2023-05-07T11:55:02;99354.06;;;23.12;41.27
18569;BME280;14780;48.316;-1.050;2023-05-07T11:57:47;99349.16;;;23.14;41.29
18569;BME280;14780;48.316;-1.050;2023-05-07T12:00:32;99355.25;;;23.16;41.25
18569;BME280;14780;48.316;-1.050;2023-05-07T12:03:17;99360.16;;;23.19;41.34
18569;BME280;14780;48.316;-1.050;2023-05-07T12:06:08;99362.38;;;23.22;41.28
18569;BME280;14780;48.316;-1.050;2023-05-07T12:08:53;99363.19;;;23.23;41.14
18569;BME280;14780;48.316;-1.050;2023-05-07T12:11:39;99362.13;;;23.24;41.21
18569;BME280;14780;48.316;-1.050;2023-05-07T12:14:30;99367.56;;;23.24;41.30
18569;BME280;14780;48.316;-1.050;2023-05-07T12:17:15;99365.69;;;23.24;41.14
18569;BME280;14780;48.316;-1.050;2023-05-07T12:20:00;99371.94;;;23.25;41.25
18569;BME280;14780;48.316;-1.050;2023-05-07T12:22:46;99365.41;;;23.26;41.28
18569;BME280;14780;48.316;-1.050;2023-05-07T12:25:36;99374.97;;;23.28;41.21
18569;BME280;14780;48.316;-1.050;2023-05-07T12:28:21;99373.09;;;23.29;41.20
18569;BME280;14780;48.316;-1.050;2023-05-07T12:31:07;99378.25;;;23.30;41.22
18569;BME280;14780;48.316;-1.050;2023-05-07T12:33:52;99385.41;;;23.31;41.16
18569;BME280;14780;48.316;-1.050;2023-05-07T12:36:38;99388.94;;;23.32;41.29
18569;BME280;14780;48.316;-1.050;2023-05-07T12:39:23;99388.69;;;23.33;41.13
18569;BME280;14780;48.316;-1.050;2023-05-07T12:42:08;99379.66;;;23.33;41.28
18569;BME280;14780;48.316;-1.050;2023-05-07T12:44:52;99390.31;;;23.34;41.13
18569;BME280;14780;48.316;-1.050;2023-05-07T12:47:38;99389.47;;;23.33;41.27
18569;BME280;14780;48.316;-1.050;2023-05-07T12:50:23;99398.50;;;23.34;41.38
18569;BME280;14780;48.316;-1.050;2023-05-07T12:53:09;99402.88;;;23.35;41.21
18569;BME280;14780;48.316;-1.050;2023-05-07T12:55:57;99391.97;;;23.35;41.15
18569;BME280;14780;48.316;-1.050;2023-05-07T12:58:42;99391.97;;;23.35;41.21
18569;BME280;14780;48.316;-1.050;2023-05-07T13:01:34;99399.66;;;23.38;41.25
18569;BME280;14780;48.316;-1.050;2023-05-07T13:04:19;99402.63;;;23.37;41.21
18569;BME280;14780;48.316;-1.050;2023-05-07T13:07:05;99402.38;;;23.38;41.13
18569;BME280;14780;48.316;-1.050;2023-05-07T13:09:50;99410.28;;;23.39;41.24
18569;BME280;14780;48.316;-1.050;2023-05-07T13:12:34;99417.38;;;23.40;41.16
18569;BME280;14780;48.316;-1.050;2023-05-07T13:15:20;99410.34;;;23.44;41.17
18569;BME280;14780;48.316;-1.050;2023-05-07T13:18:05;99418.53;;;23.44;41.10
18569;BME280;14780;48.316;-1.050;2023-05-07T13:20:49;99416.63;;;23.45;41.19
18569;BME280;14780;48.316;-1.050;2023-05-07T13:23:34;99419.91;;;23.47;41.21
18569;BME280;14780;48.316;-1.050;2023-05-07T13:26:19;99427.84;;;23.48;41.17
18569;BME280;14780;48.316;-1.050;2023-05-07T13:29:05;99417.50;;;23.50;41.19
18569;BME280;14780;48.316;-1.050;2023-05-07T13:31:49;99408.19;;;23.51;41.22
18569;BME280;14780;48.316;-1.050;2023-05-07T13:34:34;99412.56;;;23.52;41.22
18569;BME280;14780;48.316;-1.050;2023-05-07T13:37:19;99410.41;;;23.54;41.21
18569;BME280;14780;48.316;-1.050;2023-05-07T13:40:05;99420.22;;;23.55;41.13
18569;BME280;14780;48.316;-1.050;2023-05-07T13:42:50;99417.25;;;23.57;41.13
18569;BME280;14780;48.316;-1.050;2023-05-07T13:45:35;99404.16;;;23.59;41.09
18569;BME280;14780;48.316;-1.050;2023-05-07T13:48:20;99399.81;;;23.63;41.19
18569;BME280;14780;48.316;-1.050;2023-05-07T13:51:04;99394.66;;;23.66;41.06
18569;BME280;14780;48.316;-1.050;2023-05-07T13:53:49;99399.03;;;23.67;41.10
18569;BME280;14780;48.316;-1.050;2023-05-07T13:56:34;99399.56;;;23.69;41.19
18569;BME280;14780;48.316;-1.050;2023-05-07T13:59:19;99404.53;;;23.72;41.01
18569;BME280;14780;48.316;-1.050;2023-05-07T14:02:04;99400.16;;;23.76;41.08
18569;BME280;14780;48.316;-1.050;2023-05-07T14:04:49;99405.13;;;23.79;41.01
18569;BME280;14780;48.316;-1.050;2023-05-07T14:07:34;99411.69;;;23.83;41.04
18569;BME280;14780;48.316;-1.050;2023-05-07T14:10:19;99413.34;;;23.84;41.08
18569;BME280;14780;48.316;-1.050;2023-05-07T14:13:04;99412.84;;;23.87;40.98
18569;BME280;14780;48.316;-1.050;2023-05-07T14:15:49;99421.84;;;23.88;41.06
18569;BME280;14780;48.316;-1.050;2023-05-07T14:18:34;99421.84;;;23.88;41.05
18569;BME280;14780;48.316;-1.050;2023-05-07T14:21:21;99414.50;;;23.88;41.05
18569;BME280;14780;48.316;-1.050;2023-05-07T14:24:07;99424.31;;;23.89;40.96
18569;BME280;14780;48.316;-1.050;2023-05-07T14:26:53;99428.69;;;23.90;40.91
18569;BME280;14780;48.316;-1.050;2023-05-07T14:29:37;99435.81;;;23.91;40.95
18569;BME280;14780;48.316;-1.050;2023-05-07T14:32:22;99432.81;;;23.93;40.87
18569;BME280;14780;48.316;-1.050;2023-05-07T14:35:07;99433.66;;;23.93;40.90
18569;BME280;14780;48.316;-1.050;2023-05-07T14:37:52;99438.59;;;23.96;40.82
18569;BME280;14780;48.316;-1.050;2023-05-07T14:40:37;99432.03;;;23.97;40.98